Time;durP1;ratioP1;P1;durP2;ratioP2;P2;SDS_P1;SDS_P2;PMS_P1;PMS_P2;Temp;Humidity;BMP_temperature;BMP_pressure;BME280_temperature;BME280_humidity;BME280_pressure;Samples;Min_cycle;Max_cycle;Signal;HPM_P1;HPM_P2
2023/07/14 00:01:58;;;;;;;5.47;3.27;;;14.80;59.30;;;;;;5002635;28;20581;-70
2023/07/14 00:04:32;;;;;;;6.97;2.80;;;14.80;59.10;;;;;;5008320;28;20189;-65
2023/07/14 00:07:00;;;;;;;10.80;2.63;;;15.00;58.70;;;;;;5009120;28;20182;-65
2023/07/14 00:09:29;;;;;;;5.73;2.50;;;15.20;59.00;;;;;;4998516;28;20247;-68
2023/07/14 00:11:58;;;;;;;5.50;3.07;;;15.30;58.60;;;;;;5007435;28;20264;-66
2023/07/14 00:14:25;;;;;;;7.57;2.50;;;15.40;58.20;;;;;;5007045;28;20617;-64
2023/07/14 00:16:54;;;;;;;9.17;3.10;;;15.50;57.50;;;;;;5001810;28;20216;-64
2023/07/14 00:19:22;;;;;;;8.13;2.73;;;15.70;58.00;;;;;;4991266;28;20181;-65
2023/07/14 00:21:49;;;;;;;9.17;2.73;;;15.90;57.20;;;;;;5005107;28;20284;-64
2023/07/14 00:24:19;;;;;;;6.93;2.93;;;15.90;56.40;;;;;;4988719;28;20276;-64
2023/07/14 00:26:50;;;;;;;12.77;3.03;;;16.00;56.70;;;;;;5003191;28;20198;-66
2023/07/14 00:29:26;;;;;;;6.77;3.00;;;16.10;56.50;;;;;;5009113;28;20183;-65
2023/07/14 00:31:57;;;;;;;11.07;2.80;;;16.30;56.30;;;;;;5004640;28;20198;-68
2023/07/14 00:34:24;;;;;;;7.37;2.77;;;16.30;56.30;;;;;;4999425;28;20193;-67
2023/07/14 00:36:52;;;;;;;5.57;3.17;;;16.50;55.80;;;;;;4992285;28;20213;-67
2023/07/14 00:39:19;;;;;;;6.10;3.07;;;16.60;55.60;;;;;;4996876;28;20264;-66
2023/07/14 00:41:47;;;;;;;5.13;2.80;;;16.70;55.70;;;;;;5008050;28;20195;-69
2023/07/14 00:44:17;;;;;;;6.67;2.63;;;16.90;55.60;;;;;;5003863;28;20655;-68
2023/07/14 00:46:46;;;;;;;5.23;2.73;;;17.10;55.10;;;;;;5001126;28;20180;-65
2023/07/14 00:49:25;;;;;;;7.07;2.37;;;17.10;54.50;;;;;;5005113;28;20191;-68
2023/07/14 00:51:54;;;;;;;5.10;2.60;;;17.20;53.70;;;;;;5007475;28;20634;-66
2023/07/14 00:54:29;;;;;;;8.80;2.30;;;17.30;53.30;;;;;;5008086;28;20183;-64
2023/07/14 00:56:57;;;;;;;5.43;2.27;;;17.50;53.20;;;;;;5001853;28;20576;-67
2023/07/14 00:59:33;;;;;;;8.67;2.80;;;17.60;52.80;;;;;;5006136;28;20192;-65
2023/07/14 01:02:16;;;;;;;4.10;2.47;;;17.70;52.50;;;;;;4998183;28;20193;-65
2023/07/14 01:04:56;;;;;;;5.77;2.50;;;17.90;52.40;;;;;;5007491;28;20668;-67
2023/07/14 01:07:35;;;;;;;8.97;2.70;;;18.10;52.10;;;;;;5000644;28;20210;-68
2023/07/14 01:10:03;;;;;;;5.60;2.10;;;18.30;51.70;;;;;;4996667;28;20189;-66
2023/07/14 01:12:35;;;;;;;4.50;2.53;;;18.30;50.60;;;;;;4999689;28;20201;-64
2023/07/14 01:15:05;;;;;;;6.40;2.20;;;18.40;50.80;;;;;;5004777;28;20201;-66
2023/07/14 01:17:36;;;;;;;4.97;2.10;;;18.40;50.40;;;;;;5001493;28;20576;-64
2023/07/14 01:20:09;;;;;;;6.60;2.07;;;18.50;48.70;;;;;;5007471;28;20282;-65
2023/07/14 01:23:01;;;;;;;12.77;4.60;;;18.60;48.80;;;;;;5003636;28;20276;-64
2023/07/14 01:25:38;;;;;;;5.57;2.40;;;18.80;48.60;;;;;;5003391;28;20200;-66
2023/07/14 01:28:08;;;;;;;8.47;2.90;;;18.90;47.80;;;;;;5005831;28;20185;-66
2023/07/14 01:30:37;;;;;;;5.23;2.07;;;19.10;47.90;;;;;;5007962;28;20195;-66
2023/07/14 01:33:07;;;;;;;6.93;2.40;;;19.10;47.60;;;;;;4990899;28;20181;-68
2023/07/14 01:35:39;;;;;;;4.80;1.90;;;19.20;47.20;;;;;;5002150;28;20226;-63
2023/07/14 01:38:09;;;;;;;5.27;2.33;;;19.30;46.10;;;;;;5003399;28;20328;-67
2023/07/14 01:40:37;;;;;;;5.30;2.03;;;19.40;46.00;;;;;;5002676;28;20182;-65
2023/07/14 01:43:06;;;;;;;4.30;1.70;;;19.60;46.20;;;;;;5001251;28;20193;-67
2023/07/14 01:45:48;;;;;;;5.30;1.80;;;19.70;44.70;;;;;;5003133;28;20186;-65
2023/07/14 01:48:21;;;;;;;4.03;1.80;;;19.80;44.70;;;;;;5002694;28;20181;-64
2023/07/14 01:50:53;;;;;;;2.80;1.60;;;19.80;44.30;;;;;;5006683;28;20185;-64
2023/07/14 01:53:32;;;;;;;2.70;1.60;;;20.10;44.00;;;;;;4999461;28;20952;-65
2023/07/14 01:56:04;;;;;;;6.00;1.60;;;20.30;42.80;;;;;;5005670;28;20201;-70
2023/07/14 01:58:52;;;;;;;2.93;1.70;;;20.50;42.10;;;;;;5001698;28;20182;-64
2023/07/14 02:01:21;;;;;;;4.93;1.43;;;20.30;42.70;;;;;;5008355;28;20181;-64
2023/07/14 02:03:51;;;;;;;6.63;1.83;;;20.40;42.20;;;;;;4999564;28;20277;-65
2023/07/14 02:06:19;;;;;;;2.97;1.40;;;20.60;42.20;;;;;;5008775;28;20545;-67
2023/07/14 02:08:46;;;;;;;3.57;1.67;;;20.70;41.60;;;;;;5000026;28;20285;-66
2023/07/14 02:11:21;;;;;;;4.73;1.27;;;20.90;41.50;;;;;;5002501;28;20254;-68
2023/07/14 02:13:50;;;;;;;4.47;1.50;;;21.10;41.10;;;;;;5008517;28;20180;-67
2023/07/14 02:16:18;;;;;;;4.30;1.67;;;21.10;40.70;;;;;;5010627;28;20208;-65
2023/07/14 02:18:46;;;;;;;4.70;1.73;;;21.10;41.00;;;;;;5002983;28;20189;-67
2023/07/14 02:21:20;;;;;;;2.30;1.33;;;21.20;40.80;;;;;;5009801;28;20183;-69
2023/07/14 02:23:50;;;;;;;4.00;1.40;;;21.50;40.80;;;;;;5006816;28;20176;-67
2023/07/14 02:26:31;;;;;;;1.67;1.03;;;21.50;39.30;;;;;;5008107;28;20182;-68
2023/07/14 02:28:59;;;;;;;3.87;1.53;;;21.30;40.30;;;;;;5005076;28;20182;-68
2023/07/14 02:31:42;;;;;;;5.00;1.30;;;21.40;38.60;;;;;;5010738;28;20588;-67
2023/07/14 02:34:15;;;;;;;7.03;1.50;;;21.60;39.20;;;;;;5005315;28;20656;-65
2023/07/14 02:36:55;;;;;;;1.60;1.10;;;21.90;38.80;;;;;;5009219;28;20292;-68
2023/07/14 02:39:22;;;;;;;2.73;1.30;;;21.90;37.50;;;;;;5000873;28;20324;-64
2023/07/14 02:41:55;;;;;;;1.63;1.20;;;21.80;38.10;;;;;;5008318;28;20211;-69
2023/07/14 02:44:30;;;;;;;2.30;1.00;;;21.90;38.10;;;;;;5001951;28;20656;-67
2023/07/14 02:47:01;;;;;;;3.87;1.20;;;21.80;38.10;;;;;;5006671;28;20191;-66
2023/07/14 02:49:28;;;;;;;1.50;1.17;;;22.00;37.70;;;;;;5008517;28;20267;-64
2023/07/14 02:51:55;;;;;;;3.43;1.10;;;22.10;38.30;;;;;;5000915;28;20185;-66
2023/07/14 02:54:25;;;;;;;2.23;1.10;;;22.20;37.70;;;;;;5003441;28;20221;-67
2023/07/14 02:56:53;;;;;;;1.70;1.10;;;22.30;37.20;;;;;;5003930;28;20217;-66
2023/07/14 02:59:21;;;;;;;2.30;1.27;;;22.20;37.40;;;;;;5002498;28;20191;-69
2023/07/14 03:01:48;;;;;;;3.63;1.30;;;22.30;37.00;;;;;;4994129;28;20541;-68
2023/07/14 03:04:16;;;;;;;3.30;1.10;;;22.30;37.60;;;;;;5003271;28;20587;-66
2023/07/14 03:06:43;;;;;;;3.97;1.40;;;22.30;36.90;;;;;;5003941;28;20182;-70
2023/07/14 03:09:11;;;;;;;3.90;1.60;;;22.30;37.50;;;;;;5004141;28;20184;-69
2023/07/14 03:11:38;;;;;;;3.47;1.40;;;22.30;37.40;;;;;;5000355;28;20243;-65
2023/07/14 03:14:06;;;;;;;3.03;1.20;;;22.30;38.40;;;;;;5006625;28;20664;-66
2023/07/14 03:16:33;;;;;;;2.50;1.30;;;22.30;37.60;;;;;;5003943;28;20222;-67
2023/07/14 03:19:01;;;;;;;2.30;1.30;;;22.40;38.20;;;;;;4999226;28;20264;-69
2023/07/14 03:21:29;;;;;;;2.10;1.37;;;22.80;37.80;;;;;;5005346;28;20194;-69
2023/07/14 03:23:58;;;;;;;7.27;1.50;;;23.10;36.40;;;;;;5003724;28;20662;-67
2023/07/14 03:26:26;;;;;;;2.60;1.13;;;23.30;36.20;;;;;;5010611;28;20262;-66
2023/07/14 03:28:53;;;;;;;1.80;1.40;;;23.50;36.10;;;;;;5004016;28;20193;-67
2023/07/14 03:31:20;;;;;;;3.70;1.40;;;23.30;36.00;;;;;;4999951;28;20182;-69
2023/07/14 03:33:48;;;;;;;5.63;1.43;;;23.30;35.50;;;;;;5003884;28;20196;-68
2023/07/14 03:36:20;;;;;;;1.77;1.10;;;23.50;35.90;;;;;;4998261;28;20170;-66
2023/07/14 03:39:07;;;;;;;2.93;1.50;;;23.60;35.20;;;;;;5003760;28;20232;-68
2023/07/14 03:41:35;;;;;;;6.43;1.53;;;23.50;35.80;;;;;;5006580;28;20185;-65
2023/07/14 03:44:02;;;;;;;1.37;1.10;;;23.80;35.60;;;;;;5001936;28;20199;-66
2023/07/14 03:46:29;;;;;;;3.53;1.20;;;24.00;34.80;;;;;;5005705;28;20196;-69
2023/07/14 03:48:57;;;;;;;2.67;1.37;;;24.20;34.70;;;;;;5007239;28;20212;-66
2023/07/14 03:51:24;;;;;;;2.47;1.27;;;24.10;34.70;;;;;;5007993;28;20192;-66
2023/07/14 03:53:51;;;;;;;3.00;1.13;;;24.30;34.40;;;;;;5010184;28;20188;-66
2023/07/14 03:56:19;;;;;;;7.63;1.10;;;24.30;33.90;;;;;;4991582;28;20618;-67
2023/07/14 03:58:46;;;;;;;8.03;1.37;;;24.50;33.50;;;;;;4990031;28;20231;-67
2023/07/14 04:01:14;;;;;;;4.03;1.20;;;24.60;33.30;;;;;;5000674;28;20217;-67
2023/07/14 04:03:41;;;;;;;2.93;1.23;;;24.60;33.70;;;;;;5002789;28;20188;-66
2023/07/14 04:06:09;;;;;;;7.87;1.43;;;24.30;33.20;;;;;;5000589;28;20632;-68
2023/07/14 04:08:43;;;;;;;4.57;1.50;;;24.50;32.80;;;;;;5004170;28;20184;-68
2023/07/14 04:11:12;;;;;;;6.23;1.60;;;24.70;32.20;;;;;;5011161;28;20230;-66
2023/07/14 04:13:40;;;;;;;2.13;1.20;;;24.90;32.70;;;;;;5000304;28;20181;-68
2023/07/14 04:16:07;;;;;;;4.97;1.37;;;25.10;32.10;;;;;;5007753;28;20224;-67
2023/07/14 04:18:38;;;;;;;4.67;1.30;;;25.20;32.10;;;;;;5004018;28;20220;-65
2023/07/14 04:21:12;;;;;;;1.67;1.00;;;25.30;32.20;;;;;;5008531;28;20235;-67
2023/07/14 04:23:40;;;;;;;3.43;1.10;;;25.50;32.30;;;;;;5006629;28;20193;-65
2023/07/14 04:26:09;;;;;;;1.47;0.97;;;25.60;32.10;;;;;;5008603;28;20193;-65
2023/07/14 04:28:36;;;;;;;4.10;1.10;;;25.80;31.60;;;;;;4991711;28;20310;-65
2023/07/14 04:31:04;;;;;;;2.93;1.47;;;25.80;31.10;;;;;;5007991;28;20204;-69
2023/07/14 04:33:31;;;;;;;1.97;1.10;;;25.60;31.80;;;;;;5000697;28;20281;-66
2023/07/14 04:35:59;;;;;;;3.13;1.50;;;25.70;31.80;;;;;;5007193;28;20192;-68
2023/07/14 04:38:27;;;;;;;3.17;1.13;;;25.50;32.20;;;;;;5004283;28;20729;-66
2023/07/14 04:40:54;;;;;;;4.63;1.30;;;25.70;31.50;;;;;;5006395;28;20224;-65
2023/07/14 04:43:21;;;;;;;4.97;1.47;;;25.50;31.40;;;;;;5005820;28;20706;-65
2023/07/14 04:45:51;;;;;;;3.13;1.20;;;25.50;31.80;;;;;;5005708;28;20662;-65
2023/07/14 04:48:23;;;;;;;3.23;1.30;;;25.80;32.00;;;;;;5004058;28;20620;-64
2023/07/14 04:50:51;;;;;;;2.27;1.30;;;26.10;31.80;;;;;;5005882;28;20192;-65
2023/07/14 04:53:19;;;;;;;2.60;1.30;;;26.30;31.50;;;;;;5005115;28;20185;-65
2023/07/14 04:55:48;;;;;;;5.43;1.87;;;26.50;31.50;;;;;;5007326;28;20232;-64
2023/07/14 04:58:17;;;;;;;2.23;1.20;;;26.10;32.00;;;;;;5001490;28;20245;-67
2023/07/14 05:00:47;;;;;;;1.90;1.33;;;25.80;31.90;;;;;;5004862;28;20181;-68
2023/07/14 05:03:15;;;;;;;4.57;1.27;;;26.00;31.60;;;;;;5004111;28;20189;-65
2023/07/14 05:05:42;;;;;;;2.20;1.60;;;25.80;32.20;;;;;;5006050;28;20204;-65
2023/07/14 05:08:10;;;;;;;3.97;1.63;;;25.80;31.90;;;;;;5005368;28;20223;-67
2023/07/14 05:10:38;;;;;;;2.93;1.50;;;25.80;32.40;;;;;;5000408;28;20190;-69
2023/07/14 05:13:09;;;;;;;5.10;2.37;;;25.80;32.70;;;;;;5001950;28;20197;-66
2023/07/14 05:15:36;;;;;;;6.00;1.87;;;26.00;32.60;;;;;;5005672;28;20556;-69
2023/07/14 05:18:03;;;;;;;2.87;1.43;;;25.70;33.00;;;;;;4996752;28;20324;-67
2023/07/14 05:20:31;;;;;;;3.87;1.50;;;25.80;32.90;;;;;;5006068;28;20173;-68
2023/07/14 05:22:58;;;;;;;3.37;2.13;;;25.70;32.70;;;;;;4987592;28;20280;-67
2023/07/14 05:25:25;;;;;;;6.17;1.70;;;25.80;33.20;;;;;;5006040;28;20177;-67
2023/07/14 05:27:53;;;;;;;2.17;1.30;;;25.90;32.80;;;;;;4999387;28;20189;-65
2023/07/14 05:30:22;;;;;;;2.77;1.60;;;25.70;33.50;;;;;;4990490;28;20181;-66
2023/07/14 05:32:50;;;;;;;4.57;1.30;;;25.60;33.40;;;;;;4988755;28;20317;-63
2023/07/14 05:35:18;;;;;;;5.00;1.60;;;25.80;33.10;;;;;;5004017;28;20248;-66
2023/07/14 05:37:46;;;;;;;6.40;1.50;;;26.10;33.30;;;;;;4999221;28;20229;-65
2023/07/14 05:40:15;;;;;;;4.40;1.73;;;25.80;33.20;;;;;;5004734;28;20192;-64
2023/07/14 05:42:42;;;;;;;6.43;1.67;;;25.80;33.30;;;;;;4998763;28;20545;-63
2023/07/14 05:45:11;;;;;;;3.93;1.47;;;25.80;33.60;;;;;;5006750;28;20244;-65
2023/07/14 05:47:41;;;;;;;2.77;1.50;;;25.90;33.20;;;;;;5008720;28;20173;-63
2023/07/14 05:50:09;;;;;;;5.87;1.57;;;26.50;32.70;;;;;;5006360;28;20189;-65
2023/07/14 05:52:36;;;;;;;3.30;1.60;;;26.30;32.80;;;;;;5008481;28;20679;-67
2023/07/14 05:55:05;;;;;;;4.50;1.63;;;26.60;32.20;;;;;;5006887;28;20224;-64
2023/07/14 05:57:35;;;;;;;2.93;1.40;;;26.90;32.20;;;;;;5008297;28;20222;-65
2023/07/14 06:00:11;;;;;;;2.47;1.47;;;27.40;31.50;;;;;;5007393;28;20185;-63
2023/07/14 06:02:38;;;;;;;2.33;1.13;;;27.90;30.90;;;;;;5011377;28;20192;-66
2023/07/14 06:05:06;;;;;;;5.33;1.30;;;27.90;30.60;;;;;;4989296;28;20587;-68
2023/07/14 06:07:34;;;;;;;5.20;1.40;;;27.30;30.40;;;;;;5007685;28;20216;-64
2023/07/14 06:10:01;;;;;;;4.00;1.40;;;26.90;30.30;;;;;;5006979;28;20272;-65
2023/07/14 06:12:28;;;;;;;5.00;1.30;;;26.70;30.70;;;;;;5008064;28;20189;-65
2023/07/14 06:14:56;;;;;;;4.47;1.50;;;25.60;31.20;;;;;;5009703;28;20181;-67
2023/07/14 06:17:23;;;;;;;3.23;1.50;;;24.60;33.00;;;;;;5000777;28;20234;-65
2023/07/14 06:19:50;;;;;;;2.83;1.00;;;24.10;34.10;;;;;;5005617;28;21482;-63
2023/07/14 06:22:20;;;;;;;5.47;1.30;;;23.70;34.20;;;;;;5007120;28;20270;-68
2023/07/14 06:24:51;;;;;;;2.23;1.10;;;23.50;35.50;;;;;;5006342;28;20239;-65
2023/07/14 06:27:18;;;;;;;5.07;1.37;;;23.20;35.60;;;;;;5011615;28;20280;-64
2023/07/14 06:29:46;;;;;;;2.13;1.20;;;22.80;36.00;;;;;;5010248;28;20632;-68
2023/07/14 06:32:15;;;;;;;4.37;1.40;;;22.50;36.60;;;;;;5007340;28;20213;-66
2023/07/14 06:34:44;;;;;;;2.77;1.53;;;22.30;37.20;;;;;;4991642;28;20881;-64
2023/07/14 06:37:11;;;;;;;3.13;1.83;;;22.10;37.30;;;;;;5007879;28;20217;-65
2023/07/14 06:39:38;;;;;;;3.07;1.40;;;21.90;37.60;;;;;;5004056;28;20248;-63
2023/07/14 06:42:06;;;;;;;5.47;1.60;;;21.80;38.10;;;;;;5004643;28;20523;-66
2023/07/14 06:44:35;;;;;;;5.10;1.63;;;21.60;39.00;;;;;;5010609;28;20189;-63
2023/07/14 06:47:02;;;;;;;4.03;1.73;;;21.50;38.90;;;;;;5006574;28;20193;-65
2023/07/14 06:49:29;;;;;;;6.37;1.77;;;21.30;39.30;;;;;;5010197;28;20260;-65
2023/07/14 06:51:57;;;;;;;3.43;1.70;;;21.20;39.50;;;;;;5008735;28;20271;-64
2023/07/14 06:54:24;;;;;;;10.10;1.70;;;21.10;40.00;;;;;;5008909;28;20602;-65
2023/07/14 06:56:52;;;;;;;4.40;1.60;;;20.90;40.60;;;;;;5002588;28;20229;-65
2023/07/14 06:59:19;;;;;;;4.60;1.50;;;20.80;40.50;;;;;;5005673;28;20711;-65
2023/07/14 07:01:46;;;;;;;5.23;1.50;;;20.80;41.10;;;;;;5005384;28;20213;-66
2023/07/14 07:04:15;;;;;;;5.03;1.80;;;20.60;41.30;;;;;;5008995;28;20248;-65
2023/07/14 07:06:42;;;;;;;3.30;1.70;;;20.50;41.40;;;;;;5008061;28;20193;-64
2023/07/14 07:09:09;;;;;;;8.77;3.30;;;20.40;42.20;;;;;;5004729;28;20186;-65
2023/07/14 07:11:37;;;;;;;6.63;3.20;;;20.30;42.30;;;;;;5004224;28;20185;-64
2023/07/14 07:14:04;;;;;;;4.07;2.10;;;20.20;43.00;;;;;;5006939;28;20260;-67
2023/07/14 07:16:32;;;;;;;5.90;2.10;;;20.00;43.30;;;;;;5006710;28;20271;-65
2023/07/14 07:18:59;;;;;;;5.50;2.00;;;19.80;43.70;;;;;;5004334;28;20197;-64
2023/07/14 07:21:26;;;;;;;4.57;2.07;;;19.70;44.30;;;;;;5003536;28;20276;-66
2023/07/14 07:23:53;;;;;;;3.03;1.90;;;19.60;44.90;;;;;;4988995;28;20189;-65
2023/07/14 07:26:21;;;;;;;4.23;2.33;;;19.60;44.40;;;;;;5005575;28;20197;-64
2023/07/14 07:28:48;;;;;;;4.17;1.90;;;19.50;44.80;;;;;;4994875;28;20198;-64
2023/07/14 07:31:15;;;;;;;5.97;1.97;;;19.40;45.10;;;;;;5005372;28;20593;-64
2023/07/14 07:33:43;;;;;;;2.50;1.67;;;19.30;45.20;;;;;;5004046;28;20668;-65
2023/07/14 07:36:17;;;;;;;10.20;2.87;;;19.20;45.70;;;;;;5002519;28;20197;-66
2023/07/14 07:38:50;;;;;;;4.20;2.73;;;19.10;46.10;;;;;;5001361;28;20402;-68
2023/07/14 07:41:20;;;;;;;3.53;2.40;;;19.00;46.40;;;;;;5003592;28;20652;-67
2023/07/14 07:43:51;;;;;;;5.87;2.63;;;19.00;45.80;;;;;;4988139;28;20201;-67
2023/07/14 07:46:21;;;;;;;4.23;2.10;;;19.00;45.90;;;;;;5004645;28;20245;-68
2023/07/14 07:48:49;;;;;;;3.87;2.47;;;19.00;46.20;;;;;;5005833;28;20195;-65
2023/07/14 07:51:17;;;;;;;5.93;2.13;;;19.00;45.80;;;;;;5004812;28;20260;-68
2023/07/14 07:53:44;;;;;;;6.77;2.10;;;19.00;45.80;;;;;;5004927;28;20178;-65
2023/07/14 07:56:12;;;;;;;4.23;2.10;;;19.10;45.70;;;;;;5003215;28;20232;-66
2023/07/14 07:58:39;;;;;;;6.57;2.27;;;19.00;45.90;;;;;;5006016;28;20192;-68
2023/07/14 08:01:10;;;;;;;8.53;3.20;;;19.00;46.10;;;;;;5006356;28;20174;-71
2023/07/14 08:03:37;;;;;;;8.50;3.03;;;18.90;46.80;;;;;;5009413;28;20273;-65
2023/07/14 08:06:06;;;;;;;7.90;2.77;;;18.90;46.80;;;;;;5007043;28;20181;-64
2023/07/14 08:08:34;;;;;;;9.57;2.87;;;18.90;47.00;;;;;;5005841;28;20182;-69
2023/07/14 08:11:02;;;;;;;6.90;2.50;;;18.80;47.20;;;;;;5007405;28;20251;-67
2023/07/14 08:13:30;;;;;;;5.97;2.80;;;18.80;47.20;;;;;;5006553;28;20665;-65
2023/07/14 08:15:58;;;;;;;8.03;3.00;;;18.70;47.30;;;;;;5004795;28;20181;-65
2023/07/14 08:18:27;;;;;;;5.93;2.43;;;18.70;47.60;;;;;;5003357;28;20267;-66
2023/07/14 08:20:55;;;;;;;9.87;3.27;;;18.60;48.10;;;;;;5004344;28;20634;-64
2023/07/14 08:23:23;;;;;;;5.80;2.97;;;18.60;48.40;;;;;;5002057;28;20188;-63
2023/07/14 08:26:03;;;;;;;5.60;2.90;;;18.50;48.60;;;;;;5004009;28;20222;-68
2023/07/14 08:28:31;;;;;;;4.17;2.67;;;18.40;48.70;;;;;;5006114;28;20178;-66
2023/07/14 08:31:07;;;;;;;6.80;2.40;;;18.30;49.20;;;;;;4998550;28;20182;-68
2023/07/14 08:33:35;;;;;;;7.43;2.70;;;18.30;49.90;;;;;;5006258;28;20190;-67
2023/07/14 08:36:04;;;;;;;5.77;2.93;;;18.20;50.20;;;;;;5001974;28;20186;-65
2023/07/14 08:38:35;;;;;;;7.97;2.90;;;18.00;50.50;;;;;;5007198;28;20237;-68
2023/07/14 08:41:24;;;;;;;9.70;2.80;;;18.00;51.10;;;;;;5006110;28;20663;-67
2023/07/14 08:44:18;;;;;;;5.60;2.60;;;17.90;51.10;;;;;;5001145;28;20193;-66
2023/07/14 08:47:01;;;;;;;7.47;2.87;;;17.80;51.60;;;;;;4975765;28;20182;-64
2023/07/14 08:49:47;;;;;;;7.80;3.07;;;17.80;51.90;;;;;;5006324;28;20189;-65
2023/07/14 08:52:41;;;;;;;5.43;2.37;;;17.60;52.60;;;;;;5002819;28;20247;-66
2023/07/14 08:55:21;;;;;;;5.17;2.47;;;17.40;53.30;;;;;;5000883;28;20545;-64
2023/07/14 08:57:57;;;;;;;6.27;2.67;;;17.30;53.90;;;;;;5007774;28;20279;-69
2023/07/14 09:00:48;;;;;;;6.10;3.03;;;17.30;53.90;;;;;;5007708;28;20189;-68
2023/07/14 09:03:35;;;;;;;6.93;3.30;;;17.20;54.20;;;;;;5002015;28;20207;-65
2023/07/14 09:06:17;;;;;;;6.80;3.33;;;17.20;54.10;;;;;;5006842;28;20223;-64
2023/07/14 09:08:45;;;;;;;11.57;3.50;;;17.20;54.20;;;;;;5006605;28;20560;-65
2023/07/14 09:11:44;;;;;;;7.57;3.47;;;17.10;54.70;;;;;;5006356;28;20203;-64
2023/07/14 09:14:31;;;;;;;8.20;3.73;;;17.10;55.10;;;;;;5003241;28;20184;-65
2023/07/14 09:17:13;;;;;;;7.50;4.20;;;17.00;55.40;;;;;;5005168;28;20264;-67
2023/07/14 09:19:46;;;;;;;8.93;4.07;;;16.90;55.50;;;;;;5009287;28;20191;-66
2023/07/14 09:22:27;;;;;;;11.13;4.37;;;16.90;55.50;;;;;;5008142;28;20726;-67
2023/07/14 09:25:18;;;;;;;7.07;3.93;;;16.80;55.90;;;;;;5007743;28;20178;-66
2023/07/14 09:27:48;;;;;;;8.33;4.23;;;16.80;56.00;;;;;;5007534;28;20518;-67
2023/07/14 09:30:20;;;;;;;7.13;3.50;;;16.70;56.60;;;;;;5001712;28;20592;-66
2023/07/14 09:32:52;;;;;;;6.20;3.27;;;16.60;56.90;;;;;;5010109;28;20235;-66
2023/07/14 09:35:24;;;;;;;8.37;3.90;;;16.50;57.80;;;;;;5009600;28;20269;-66
2023/07/14 09:38:10;;;;;;;8.33;3.83;;;16.50;57.40;;;;;;5006395;28;20326;-69
2023/07/14 09:40:42;;;;;;;8.67;4.20;;;16.50;57.90;;;;;;5004616;28;20189;-67
2023/07/14 09:43:11;;;;;;;9.63;4.40;;;16.40;57.90;;;;;;5006332;28;20192;-67
2023/07/14 09:45:41;;;;;;;12.00;4.13;;;16.40;58.40;;;;;;5011737;28;20191;-66
2023/07/14 09:48:33;;;;;;;8.47;3.97;;;16.30;58.90;;;;;;5011212;28;20209;-66
2023/07/14 09:51:00;;;;;;;14.90;4.40;;;16.30;59.10;;;;;;5007011;28;20215;-66
2023/07/14 09:53:31;;;;;;;5.03;3.80;;;16.20;59.50;;;;;;5004463;28;20232;-66
2023/07/14 09:56:13;;;;;;;7.90;4.07;;;16.10;59.70;;;;;;5009658;28;20186;-66
2023/07/14 09:58:54;;;;;;;7.00;4.03;;;16.00;59.90;;;;;;5007520;28;20249;-71
2023/07/14 10:01:21;;;;;;;12.83;4.33;;;16.00;60.20;;;;;;5003127;28;20181;-67
2023/07/14 10:03:54;;;;;;;9.37;4.43;;;15.90;60.40;;;;;;5008080;28;20676;-69
2023/07/14 10:06:26;;;;;;;7.23;4.40;;;15.80;60.50;;;;;;5009241;28;20183;-66
2023/07/14 10:09:07;;;;;;;10.77;4.87;;;15.80;60.70;;;;;;5010338;28;20196;-66
2023/07/14 10:11:46;;;;;;;10.13;4.27;;;15.70;61.00;;;;;;5011216;28;20280;-65
2023/07/14 10:14:37;;;;;;;12.30;4.30;;;15.70;60.90;;;;;;5009219;28;20189;-66
2023/07/14 10:17:07;;;;;;;6.60;3.87;;;15.60;60.80;;;;;;5008120;28;20223;-66
2023/07/14 10:19:39;;;;;;;7.77;3.73;;;15.40;61.20;;;;;;5011933;28;20191;-67
2023/07/14 10:22:14;;;;;;;7.47;4.27;;;15.40;61.30;;;;;;5006700;28;20664;-66
2023/07/14 10:24:55;;;;;;;8.97;4.53;;;15.40;61.40;;;;;;4993656;28;20188;-66
2023/07/14 10:27:32;;;;;;;6.60;4.10;;;15.30;61.60;;;;;;5003311;28;20179;-65
2023/07/14 10:30:14;;;;;;;10.13;4.50;;;15.30;62.20;;;;;;5007102;28;20235;-65
2023/07/14 10:32:54;;;;;;;6.07;3.87;;;15.20;62.20;;;;;;5008757;28;20200;-67
2023/07/14 10:35:27;;;;;;;9.40;4.80;;;15.20;62.50;;;;;;5008677;28;20208;-66
2023/07/14 10:38:05;;;;;;;11.00;4.93;;;15.10;63.00;;;;;;5007855;28;20323;-66
2023/07/14 10:40:38;;;;;;;9.17;5.37;;;15.10;63.50;;;;;;5010540;28;20187;-66
2023/07/14 10:43:21;;;;;;;11.03;5.60;;;15.10;63.60;;;;;;5008455;28;20189;-66
2023/07/14 10:45:58;;;;;;;13.07;5.30;;;15.10;63.60;;;;;;5006557;28;20185;-68
2023/07/14 10:48:39;;;;;;;18.17;5.60;;;15.10;63.70;;;;;;5003522;28;20274;-65
2023/07/14 10:51:21;;;;;;;13.53;5.00;;;15.10;63.70;;;;;;5009960;28;20177;-65
2023/07/14 10:54:04;;;;;;;11.77;4.83;;;15.10;63.90;;;;;;5003936;28;20217;-66
2023/07/14 10:56:55;;;;;;;11.33;5.67;;;15.20;64.00;;;;;;5008149;28;20182;-66
2023/07/14 10:59:26;;;;;;;11.83;6.83;;;15.10;63.80;;;;;;5002752;28;20191;-67
2023/07/14 11:02:05;;;;;;;15.87;6.93;;;15.00;64.40;;;;;;5007203;28;20218;-66
2023/07/14 11:04:36;;;;;;;10.17;5.60;;;15.00;64.50;;;;;;5006783;28;20336;-65
2023/07/14 11:07:05;;;;;;;15.93;5.87;;;15.00;63.70;;;;;;5005374;28;20189;-68
2023/07/14 11:09:33;;;;;;;16.43;6.77;;;15.00;63.50;;;;;;5009453;28;20196;-67
2023/07/14 11:12:36;;;;;;;17.20;6.73;;;15.00;63.70;;;;;;5007475;28;20185;-66
2023/07/14 11:15:18;;;;;;;12.77;6.53;;;15.00;64.10;;;;;;5008214;28;20212;-66
2023/07/14 11:18:12;;;;;;;11.83;5.30;;;14.90;64.30;;;;;;5007693;28;20209;-66
2023/07/14 11:20:52;;;;;;;9.20;4.93;;;15.00;63.60;;;;;;5007378;28;20560;-66
2023/07/14 11:23:50;;;;;;;7.40;4.63;;;15.00;62.50;;;;;;5005773;28;20850;-66
2023/07/14 11:26:40;;;;;;;7.37;4.70;;;15.20;61.60;;;;;;5008512;28;20177;-66
2023/07/14 11:29:32;;;;;;;8.00;4.40;;;15.30;61.30;;;;;;5007065;28;20873;-67
2023/07/14 11:32:02;;;;;;;5.27;3.37;;;15.30;61.20;;;;;;5005482;28;20190;-66
2023/07/14 11:34:45;;;;;;;7.17;3.83;;;15.40;60.80;;;;;;5000270;28;20257;-67
2023/07/14 11:37:38;;;;;;;8.07;4.20;;;15.50;60.50;;;;;;5006634;28;20216;-66
2023/07/14 11:40:20;;;;;;;8.10;3.60;;;15.50;60.40;;;;;;5007356;28;20257;-66
2023/07/14 11:42:54;;;;;;;7.13;3.40;;;15.50;60.30;;;;;;5003327;28;20265;-66
2023/07/14 11:45:24;;;;;;;4.37;3.07;;;15.50;60.00;;;;;;5007122;28;20566;-66
2023/07/14 11:47:52;;;;;;;5.00;3.40;;;15.50;60.00;;;;;;5002719;28;20178;-66
2023/07/14 11:50:24;;;;;;;4.50;3.27;;;15.50;60.10;;;;;;5005303;28;20185;-68
2023/07/14 11:53:21;;;;;;;7.03;3.67;;;15.50;60.00;;;;;;5009139;28;20181;-65
2023/07/14 11:55:52;;;;;;;6.53;3.83;;;15.40;60.30;;;;;;5007606;28;20190;-67
2023/07/14 11:58:30;;;;;;;6.17;3.50;;;15.40;60.20;;;;;;5005997;28;20225;-66
2023/07/14 12:01:12;;;;;;;4.17;3.30;;;15.30;60.60;;;;;;5005632;28;20331;-66
2023/07/14 12:03:43;;;;;;;10.37;3.70;;;15.30;60.80;;;;;;5004226;28;20186;-66
2023/07/14 12:06:14;;;;;;;6.00;3.27;;;15.20;61.20;;;;;;5007313;28;20264;-70
2023/07/14 12:08:42;;;;;;;6.97;3.73;;;15.20;61.10;;;;;;5003811;28;20190;-67
2023/07/14 12:11:30;;;;;;;5.83;3.53;;;15.20;61.60;;;;;;5008015;28;20196;-68
2023/07/14 12:13:59;;;;;;;6.77;3.37;;;15.10;62.10;;;;;;4989568;28;20177;-67
2023/07/14 12:16:46;;;;;;;7.37;3.30;;;15.10;62.10;;;;;;4989574;28;20213;-66
2023/07/14 12:19:33;;;;;;;4.47;3.37;;;15.00;62.90;;;;;;5004313;28;20194;-66
2023/07/14 12:22:10;;;;;;;5.77;3.93;;;14.90;62.40;;;;;;5003054;28;20277;-66
2023/07/14 12:24:50;;;;;;;8.90;3.97;;;14.90;63.50;;;;;;5004005;28;20189;-69
2023/07/14 12:27:35;;;;;;;4.23;2.60;;;14.80;63.80;;;;;;5007851;28;20185;-66
2023/07/14 12:30:22;;;;;;;5.13;3.30;;;14.80;63.00;;;;;;5005970;28;20185;-66
2023/07/14 12:33:00;;;;;;;4.30;2.97;;;14.80;62.90;;;;;;5005573;28;20524;-65
2023/07/14 12:35:30;;;;;;;7.30;3.40;;;14.80;63.00;;;;;;5006630;28;20177;-66
2023/07/14 12:38:12;;;;;;;4.37;3.17;;;14.70;63.60;;;;;;5005309;28;20793;-67
2023/07/14 12:40:39;;;;;;;9.20;3.93;;;14.60;64.90;;;;;;5002651;28;20175;-66
2023/07/14 12:43:11;;;;;;;9.47;3.47;;;14.50;65.20;;;;;;5004298;28;20574;-66
2023/07/14 12:45:39;;;;;;;5.07;3.33;;;14.40;65.20;;;;;;5004095;28;20669;-69
2023/07/14 12:48:11;;;;;;;7.20;3.33;;;14.30;65.60;;;;;;5004054;28;20678;-68
2023/07/14 12:50:42;;;;;;;5.80;3.00;;;14.20;65.90;;;;;;5006713;28;20217;-66
2023/07/14 12:53:15;;;;;;;4.27;2.73;;;14.20;65.70;;;;;;4998603;28;20191;-66
2023/07/14 12:55:45;;;;;;;5.57;2.60;;;14.00;65.80;;;;;;5005323;28;20176;-65
2023/07/14 12:58:32;;;;;;;4.77;2.57;;;14.00;66.00;;;;;;4999828;28;20215;-66
2023/07/14 13:00:59;;;;;;;4.63;3.10;;;14.00;66.10;;;;;;5004170;28;20177;-68
2023/07/14 13:03:27;;;;;;;6.73;2.80;;;14.00;66.10;;;;;;5001413;28;20189;-67
2023/07/14 13:05:54;;;;;;;5.13;2.40;;;14.00;66.30;;;;;;5006558;28;20256;-66
2023/07/14 13:08:26;;;;;;;5.37;3.27;;;14.00;66.60;;;;;;5002585;28;20268;-66
2023/07/14 13:10:55;;;;;;;5.00;2.90;;;13.90;66.80;;;;;;5003007;28;20182;-65
2023/07/14 13:13:37;;;;;;;4.50;3.00;;;13.90;67.00;;;;;;4987600;28;20188;-65